Brashear, Texas
Current Conditions -  °F | °C
As of 9:35 PM on Saturday 22 Nov 2014 (Local Time) from KSLR Reporting Station
Light Rain Light Rain  
Wind Chill: 61°   Ceiling: 10000
Heat Index: 61°   Visibility: 4mi
Dew Point: 61°   Wind: 9mph
Humidity: 99%   Direction: 110°ESE
Pressure: 29.81"   Gusts: NA
Location:  33.12°N, 95.73°W
Report Text: KSLR 230335Z AUTO 11008KT 4SM -RA OVC100 16/16 A2981 RMK AO2 T01630162
Loading
Personal Weather Stations






























Interactive Weather Map New forecast layout! Learn more

10-Day Weather Forecast

Advertisements
Track Severe Weather on mobile